Time;durP1;ratioP1;P1;durP2;ratioP2;P2;SDS_P1;SDS_P2;PMS_P1;PMS_P2;Temp;Humidity;BMP_temperature;BMP_pressure;BME280_temperature;BME280_humidity;BME280_pressure;Samples;Min_cycle;Max_cycle;Signal;HPM_P1;HPM_P2
2023/01/29 00:01:26;;;;;;;9.52;6.60;;;1.30;99.90;;;;;;5093071;28;20055;-67
2023/01/29 00:03:51;;;;;;;11.43;7.68;;;1.30;99.90;;;;;;5092622;28;20070;-67
2023/01/29 00:06:18;;;;;;;10.77;7.68;;;1.20;99.90;;;;;;5092844;28;20161;-67
2023/01/29 00:08:43;;;;;;;11.00;8.05;;;1.20;99.90;;;;;;5091623;28;20032;-68
2023/01/29 00:11:09;;;;;;;11.45;8.32;;;1.30;99.90;;;;;;5092580;28;20504;-67
2023/01/29 00:13:35;;;;;;;12.93;8.23;;;1.30;99.90;;;;;;5092607;28;20534;-67
2023/01/29 00:16:01;;;;;;;11.27;8.38;;;1.20;99.90;;;;;;5092448;28;20059;-68
2023/01/29 00:18:28;;;;;;;10.60;7.75;;;1.20;99.90;;;;;;5092772;28;20024;-67
2023/01/29 00:20:55;;;;;;;11.20;7.22;;;1.20;99.90;;;;;;5092374;28;20031;-68
2023/01/29 00:23:21;;;;;;;10.60;7.78;;;1.20;99.90;;;;;;5085728;28;20021;-67
2023/01/29 00:25:47;;;;;;;10.90;7.18;;;1.20;99.90;;;;;;5072289;28;20028;-67
2023/01/29 00:28:14;;;;;;;10.30;7.80;;;1.20;99.90;;;;;;5072584;28;20039;-68
2023/01/29 00:30:40;;;;;;;13.82;8.25;;;1.20;99.90;;;;;;5072611;28;20037;-68
2023/01/29 00:33:05;;;;;;;11.45;7.88;;;1.10;99.90;;;;;;5072122;28;20028;-66
2023/01/29 00:35:32;;;;;;;11.45;7.70;;;1.10;99.90;;;;;;5072747;28;20509;-68
2023/01/29 00:37:58;;;;;;;11.35;7.45;;;1.10;99.90;;;;;;5072059;28;20107;-67
2023/01/29 00:40:25;;;;;;;9.77;6.93;;;1.10;99.90;;;;;;5072068;28;20127;-67
2023/01/29 00:45:35;;;;;;;9.55;7.47;;;1.00;99.90;;;;;;5072515;28;20043;-68
2023/01/29 00:48:02;;;;;;;12.07;7.07;;;1.00;99.90;;;;;;5071935;28;20060;-68
2023/01/29 00:50:29;;;;;;;11.25;6.90;;;1.00;99.90;;;;;;5072331;28;20036;-68
2023/01/29 00:52:55;;;;;;;10.98;7.68;;;1.00;99.90;;;;;;5071937;28;20118;-68
2023/01/29 00:55:21;;;;;;;11.02;7.50;;;1.00;99.90;;;;;;5071979;28;20043;-67
2023/01/29 00:57:47;;;;;;;10.10;7.55;;;1.00;99.90;;;;;;5071900;28;20039;-69
2023/01/29 01:00:16;;;;;;;10.07;7.05;;;1.00;99.90;;;;;;5072460;28;20377;-66
2023/01/29 01:05:26;;;;;;;11.10;7.32;;;1.00;99.90;;;;;;5072096;28;20035;-67
2023/01/29 01:07:54;;;;;;;11.85;7.78;;;1.00;99.90;;;;;;5071720;28;20029;-68
2023/01/29 01:10:26;;;;;;;10.55;7.30;;;1.00;99.90;;;;;;5072319;28;20029;-67
2023/01/29 01:12:54;;;;;;;10.02;6.10;;;1.00;99.90;;;;;;5071628;28;20058;-68
2023/01/29 01:15:20;;;;;;;10.85;7.50;;;1.00;99.90;;;;;;5072024;28;20035;-67
2023/01/29 01:17:47;;;;;;;10.13;6.90;;;1.00;99.90;;;;;;5071979;28;20099;-68
2023/01/29 01:20:14;;;;;;;10.68;6.53;;;1.00;99.90;;;;;;5071508;28;20111;-67
2023/01/29 01:22:39;;;;;;;11.10;7.30;;;1.00;99.90;;;;;;5075751;28;20024;-67
2023/01/29 01:25:05;;;;;;;10.48;6.90;;;1.00;99.90;;;;;;5074934;28;20021;-67
2023/01/29 01:27:31;;;;;;;10.85;7.00;;;1.00;99.90;;;;;;5075644;28;20025;-67
2023/01/29 01:29:56;;;;;;;10.82;7.30;;;0.90;99.90;;;;;;5075116;28;20062;-67
2023/01/29 01:32:22;;;;;;;10.02;6.88;;;0.90;99.90;;;;;;5075718;28;20037;-67
2023/01/29 01:34:48;;;;;;;9.15;6.43;;;0.90;99.90;;;;;;5075303;28;20376;-72
2023/01/29 01:37:13;;;;;;;10.68;7.78;;;0.90;99.90;;;;;;5075575;28;20500;-67
2023/01/29 01:39:39;;;;;;;12.80;7.90;;;0.90;99.90;;;;;;5075140;28;20104;-67
2023/01/29 01:42:10;;;;;;;11.52;6.97;;;0.80;99.90;;;;;;5074969;28;20056;-68
2023/01/29 01:45:00;;;;;;;10.68;7.43;;;0.90;99.90;;;;;;5075356;28;20032;-67
2023/01/29 01:47:34;;;;;;;11.43;6.90;;;0.80;99.90;;;;;;5075374;28;20103;-67
2023/01/29 01:50:07;;;;;;;11.15;7.43;;;0.80;99.90;;;;;;5074604;28;20401;-67
2023/01/29 01:52:34;;;;;;;12.77;8.60;;;0.90;99.90;;;;;;5075232;28;20457;-68
2023/01/29 01:55:00;;;;;;;12.95;8.25;;;0.90;99.90;;;;;;5074788;28;20020;-67
2023/01/29 01:57:29;;;;;;;10.77;7.97;;;0.80;99.90;;;;;;5075089;28;20039;-67
2023/01/29 02:00:08;;;;;;;11.32;7.97;;;0.80;99.90;;;;;;5074636;28;20412;-67
2023/01/29 02:10:49;;;;;;;13.00;7.90;;;0.70;99.90;;;;;;5076495;28;20114;-67
2023/01/29 02:13:16;;;;;;;11.68;8.02;;;0.70;99.90;;;;;;5074864;28;20067;-67
2023/01/29 02:15:45;;;;;;;12.40;8.02;;;0.80;99.90;;;;;;5074818;28;20028;-67
2023/01/29 02:18:13;;;;;;;11.45;7.38;;;0.80;99.90;;;;;;5074367;28;20350;-68
2023/01/29 02:20:43;;;;;;;12.48;7.38;;;0.70;99.90;;;;;;5074903;28;20033;-67
2023/01/29 02:23:25;;;;;;;12.18;8.18;;;0.70;99.90;;;;;;5073955;28;20029;-67
2023/01/29 02:26:12;;;;;;;10.15;7.20;;;0.70;99.90;;;;;;5072882;28;20028;-67
2023/01/29 02:29:29;;;;;;;10.82;7.43;;;0.70;99.90;;;;;;5074200;28;20039;-67
2023/01/29 02:32:00;;;;;;;11.55;7.68;;;0.70;99.90;;;;;;5072930;28;20029;-68
2023/01/29 02:37:38;;;;;;;10.48;6.60;;;0.60;99.90;;;;;;5074131;28;20086;-67
2023/01/29 02:40:29;;;;;;;10.43;6.85;;;0.60;99.90;;;;;;5073642;28;20055;-67
2023/01/29 02:43:12;;;;;;;11.98;7.00;;;0.50;99.50;;;;;;5090829;28;20032;-69
2023/01/29 02:45:48;;;;;;;10.25;6.80;;;0.60;99.60;;;;;;5094461;28;20024;-67
2023/01/29 02:48:19;;;;;;;9.65;6.60;;;0.60;99.50;;;;;;5094161;28;20028;-66
2023/01/29 02:50:57;;;;;;;9.82;7.18;;;0.60;99.20;;;;;;5094377;28;20036;-67
2023/01/29 02:53:23;;;;;;;11.98;7.13;;;0.60;99.30;;;;;;5094233;28;20035;-68
2023/01/29 02:56:13;;;;;;;11.80;7.60;;;0.60;98.80;;;;;;5094211;28;20028;-68
2023/01/29 02:58:43;;;;;;;13.25;7.47;;;0.50;99.00;;;;;;5093894;28;20366;-67
2023/01/29 03:01:25;;;;;;;11.88;7.55;;;0.60;99.20;;;;;;5093678;28;20024;-67
2023/01/29 03:03:54;;;;;;;10.60;6.38;;;0.60;98.90;;;;;;5094115;28;20436;-67
2023/01/29 03:06:34;;;;;;;9.27;6.90;;;0.60;98.60;;;;;;5094065;28;20020;-67
2023/01/29 03:09:27;;;;;;;8.95;6.25;;;0.50;98.70;;;;;;5093522;28;20429;-67
2023/01/29 03:11:57;;;;;;;10.38;6.72;;;0.50;98.70;;;;;;5093941;28;20031;-67
2023/01/29 03:15:10;;;;;;;9.98;6.47;;;0.50;98.70;;;;;;5094116;28;20024;-66
2023/01/29 03:17:32;;;;;;;9.63;6.72;;;0.50;98.50;;;;;;5093324;28;20071;-67
2023/01/29 03:19:59;;;;;;;10.68;7.28;;;0.50;98.50;;;;;;5093516;28;20055;-68
2023/01/29 03:22:26;;;;;;;9.20;6.50;;;0.50;98.50;;;;;;5094760;28;20028;-67
2023/01/29 03:33:38;;;;;;;8.55;6.88;;;0.40;98.30;;;;;;5092373;28;20077;-67
2023/01/29 03:36:18;;;;;;;9.18;7.03;;;0.40;98.10;;;;;;5093108;28;20028;-68
2023/01/29 03:38:44;;;;;;;10.50;7.57;;;0.40;98.00;;;;;;5093856;28;20409;-67
2023/01/29 03:41:28;;;;;;;11.23;7.25;;;0.40;97.90;;;;;;5093082;28;20059;-67
2023/01/29 03:44:18;;;;;;;13.30;7.63;;;0.40;98.00;;;;;;5093406;28;20054;-68
2023/01/29 03:46:55;;;;;;;10.63;7.25;;;0.40;98.30;;;;;;5093410;28;20103;-67
2023/01/29 03:49:27;;;;;;;12.98;8.15;;;0.40;97.50;;;;;;5092752;28;20039;-67
2023/01/29 03:52:10;;;;;;;9.70;6.93;;;0.30;97.50;;;;;;5093633;28;20128;-67
2023/01/29 03:54:42;;;;;;;14.68;8.45;;;0.40;97.80;;;;;;5092984;28;20023;-67
2023/01/29 03:57:21;;;;;;;11.65;7.65;;;0.30;98.00;;;;;;5092581;28;20028;-67
2023/01/29 04:00:11;;;;;;;11.05;7.65;;;0.30;98.10;;;;;;5093198;28;20024;-67
2023/01/29 04:03:02;;;;;;;9.65;7.20;;;0.30;98.20;;;;;;5093370;28;20031;-68
2023/01/29 04:05:35;;;;;;;12.93;8.48;;;0.20;98.40;;;;;;5093185;28;20028;-67
2023/01/29 04:08:10;;;;;;;12.63;8.60;;;0.30;98.60;;;;;;5092654;28;20020;-69
2023/01/29 04:10:39;;;;;;;10.05;7.18;;;0.20;98.90;;;;;;5093073;28;20062;-67
2023/01/29 04:13:08;;;;;;;10.45;7.45;;;0.20;99.00;;;;;;5092636;28;20028;-68
2023/01/29 04:15:39;;;;;;;11.68;7.47;;;0.30;98.80;;;;;;5092671;28;20433;-67
2023/01/29 04:18:05;;;;;;;11.25;7.82;;;0.30;98.60;;;;;;5092249;28;20450;-68
2023/01/29 04:20:31;;;;;;;10.07;7.63;;;0.30;98.70;;;;;;5092852;28;20023;-67
2023/01/29 04:22:57;;;;;;;12.82;7.68;;;0.30;98.70;;;;;;5092722;28;20032;-67
2023/01/29 04:25:34;;;;;;;11.35;7.63;;;0.30;98.60;;;;;;5091287;28;20020;-67
2023/01/29 04:28:12;;;;;;;12.15;7.35;;;0.30;98.50;;;;;;5092606;28;20024;-67
2023/01/29 04:30:44;;;;;;;10.85;7.80;;;0.30;98.20;;;;;;5092985;28;20460;-67
2023/01/29 04:33:28;;;;;;;9.63;7.20;;;0.30;98.10;;;;;;5082336;28;20441;-67
2023/01/29 04:36:15;;;;;;;11.05;7.75;;;0.30;98.30;;;;;;5072507;28;20031;-67
2023/01/29 04:39:03;;;;;;;11.50;7.22;;;0.20;97.90;;;;;;5072707;28;20115;-67
2023/01/29 04:41:40;;;;;;;10.77;6.55;;;0.30;97.40;;;;;;5072625;28;20079;-67
2023/01/29 04:44:54;;;;;;;9.52;7.03;;;0.20;97.30;;;;;;5074408;28;20032;-67
2023/01/29 04:48:24;;;;;;;10.70;7.63;;;0.20;97.50;;;;;;5071594;28;20418;-67
2023/01/29 04:51:09;;;;;;;13.18;7.40;;;0.30;97.70;;;;;;5047931;28;20083;-67
2023/01/29 04:53:51;;;;;;;12.02;7.53;;;0.30;97.50;;;;;;5050280;28;20092;-67
2023/01/29 04:56:24;;;;;;;10.30;7.35;;;0.30;97.20;;;;;;5068760;28;20556;-67
2023/01/29 04:58:58;;;;;;;11.68;7.97;;;0.30;97.20;;;;;;5076076;28;20028;-67
2023/01/29 05:01:28;;;;;;;8.93;6.15;;;0.20;97.00;;;;;;5076053;28;20056;-67
2023/01/29 05:03:56;;;;;;;8.55;6.22;;;0.30;96.50;;;;;;5076196;28;20033;-67
2023/01/29 05:06:23;;;;;;;10.77;6.07;;;0.20;96.10;;;;;;5075753;28;20021;-67
2023/01/29 05:08:50;;;;;;;9.50;6.28;;;0.20;96.20;;;;;;5076075;28;20385;-67
2023/01/29 05:11:17;;;;;;;8.82;6.13;;;0.10;96.10;;;;;;5075332;28;20052;-67
2023/01/29 05:13:44;;;;;;;7.85;5.93;;;0.00;95.90;;;;;;5076123;28;20035;-67
2023/01/29 05:16:18;;;;;;;9.80;6.55;;;0.10;96.00;;;;;;5075676;28;20024;-67
2023/01/29 05:18:44;;;;;;;8.75;6.25;;;0.00;95.70;;;;;;5074939;28;20044;-67
2023/01/29 05:21:10;;;;;;;8.50;6.13;;;0.00;95.30;;;;;;5075604;28;20024;-67
2023/01/29 05:23:35;;;;;;;8.63;6.18;;;-0.10;94.90;;;;;;5075886;28;20073;-67
2023/01/29 05:26:02;;;;;;;8.65;6.20;;;-0.20;95.10;;;;;;5075800;28;20113;-67
2023/01/29 05:28:28;;;;;;;9.13;5.85;;;-0.10;95.40;;;;;;5083587;28;20035;-68
2023/01/29 05:30:55;;;;;;;10.45;6.10;;;-0.10;94.90;;;;;;5085672;28;20092;-67
2023/01/29 05:33:24;;;;;;;8.50;5.68;;;-0.10;94.90;;;;;;5075644;28;20024;-68
2023/01/29 05:35:49;;;;;;;10.32;6.40;;;-0.10;94.20;;;;;;5075639;28;20024;-67
2023/01/29 05:38:17;;;;;;;8.30;5.88;;;-0.10;93.80;;;;;;5074965;28;20085;-67
2023/01/29 05:40:43;;;;;;;7.22;6.07;;;-0.10;93.90;;;;;;5075529;28;20057;-68
2023/01/29 05:43:16;;;;;;;11.60;7.25;;;-0.10;93.50;;;;;;5074981;28;20040;-68
2023/01/29 05:45:42;;;;;;;9.75;6.32;;;0.00;93.70;;;;;;5075459;28;20027;-67
2023/01/29 05:48:08;;;;;;;10.52;6.75;;;-0.10;93.60;;;;;;5075306;28;20028;-68
2023/01/29 05:50:33;;;;;;;8.52;6.10;;;-0.20;93.40;;;;;;5075482;28;20032;-67
2023/01/29 05:53:00;;;;;;;9.60;6.43;;;-0.20;93.30;;;;;;5075649;28;20029;-67
2023/01/29 05:55:28;;;;;;;8.80;6.30;;;-0.20;93.30;;;;;;5075077;28;20078;-67
2023/01/29 05:57:54;;;;;;;11.48;6.72;;;-0.20;93.10;;;;;;5075334;28;20557;-67
2023/01/29 06:00:20;;;;;;;8.93;6.43;;;-0.20;93.00;;;;;;5074950;28;20024;-67
2023/01/29 06:02:46;;;;;;;8.07;6.68;;;-0.20;93.10;;;;;;5075162;28;20112;-67
2023/01/29 06:05:11;;;;;;;11.75;7.13;;;-0.20;93.10;;;;;;5074692;28;20379;-67
2023/01/29 06:07:38;;;;;;;12.52;7.03;;;-0.20;93.10;;;;;;5073548;28;20026;-67
2023/01/29 06:10:05;;;;;;;10.95;7.70;;;-0.20;93.10;;;;;;5074972;28;20070;-67
2023/01/29 06:12:30;;;;;;;11.95;7.10;;;-0.30;92.90;;;;;;5074798;28;20028;-68
2023/01/29 06:14:56;;;;;;;10.27;7.15;;;-0.30;93.20;;;;;;5074972;28;20342;-67
2023/01/29 06:17:22;;;;;;;9.73;7.25;;;-0.30;93.40;;;;;;5074432;28;20027;-67
2023/01/29 06:19:47;;;;;;;10.52;7.45;;;-0.40;92.80;;;;;;5075057;28;20033;-66
2023/01/29 06:22:13;;;;;;;9.27;7.35;;;-0.40;93.20;;;;;;5074114;28;20020;-67
2023/01/29 06:24:38;;;;;;;10.30;7.63;;;-0.30;93.20;;;;;;5074079;28;20059;-67
2023/01/29 06:27:04;;;;;;;13.25;7.55;;;-0.30;93.20;;;;;;5074630;28;20051;-67
2023/01/29 06:29:30;;;;;;;11.70;7.28;;;-0.40;93.30;;;;;;5074088;28;20032;-67
2023/01/29 06:31:55;;;;;;;12.43;7.68;;;-0.40;93.00;;;;;;5074562;28;20032;-67
2023/01/29 06:34:21;;;;;;;11.57;8.55;;;-0.40;93.20;;;;;;5074475;28;20036;-67
2023/01/29 06:36:47;;;;;;;7.85;6.47;;;-0.40;93.30;;;;;;5074414;28;20073;-67
2023/01/29 06:39:12;;;;;;;12.82;7.68;;;-0.40;93.30;;;;;;5073993;28;20469;-67
2023/01/29 06:41:38;;;;;;;10.02;7.38;;;-0.40;93.30;;;;;;5074498;28;20055;-66
2023/01/29 06:44:04;;;;;;;10.77;7.80;;;-0.40;93.30;;;;;;5074435;28;20024;-67
2023/01/29 06:46:29;;;;;;;11.02;7.28;;;-0.40;93.60;;;;;;5073856;28;20468;-67
2023/01/29 06:48:59;;;;;;;10.98;7.15;;;-0.40;93.50;;;;;;5075221;28;20042;-67
2023/01/29 06:51:24;;;;;;;8.40;6.50;;;-0.40;93.00;;;;;;5074872;28;20090;-66
2023/01/29 06:53:50;;;;;;;10.00;6.88;;;-0.40;92.90;;;;;;5074223;28;20029;-66
2023/01/29 06:56:16;;;;;;;11.07;7.20;;;-0.40;93.20;;;;;;5073753;28;20020;-68
2023/01/29 06:58:42;;;;;;;9.02;6.47;;;-0.40;93.00;;;;;;5074156;28;20446;-67
2023/01/29 07:01:10;;;;;;;11.05;5.95;;;-0.50;92.50;;;;;;5073990;28;20021;-66
2023/01/29 07:03:36;;;;;;;9.25;6.13;;;-0.40;92.30;;;;;;5073417;28;20028;-68
2023/01/29 07:06:02;;;;;;;8.98;6.00;;;-0.50;91.90;;;;;;5074048;28;20523;-68
2023/01/29 07:08:27;;;;;;;8.82;6.70;;;-0.50;91.70;;;;;;5073410;28;20078;-68
2023/01/29 07:10:58;;;;;;;9.45;6.70;;;-0.60;91.90;;;;;;5073819;28;20028;-66
2023/01/29 07:13:24;;;;;;;8.15;6.07;;;-0.50;91.90;;;;;;5073445;28;20032;-66
2023/01/29 07:15:50;;;;;;;7.93;6.35;;;-0.50;91.70;;;;;;5073815;28;20029;-68
2023/01/29 07:18:15;;;;;;;9.73;6.28;;;-0.50;91.70;;;;;;5073296;28;20029;-67
2023/01/29 07:20:42;;;;;;;8.15;6.05;;;-0.50;91.60;;;;;;5073650;28;20073;-66
2023/01/29 07:23:12;;;;;;;9.70;6.05;;;-0.50;91.30;;;;;;5073667;28;20056;-67
2023/01/29 07:25:39;;;;;;;10.13;6.50;;;-0.50;91.50;;;;;;5073200;28;20498;-66
2023/01/29 07:28:05;;;;;;;8.32;5.97;;;-0.60;91.30;;;;;;5073347;28;20075;-66
2023/01/29 07:30:30;;;;;;;9.15;6.00;;;-0.60;91.40;;;;;;5073024;28;20033;-66
2023/01/29 07:33:04;;;;;;;11.13;6.32;;;-0.60;91.20;;;;;;5073334;28;20028;-67
2023/01/29 07:35:30;;;;;;;8.93;5.93;;;-0.60;91.30;;;;;;5073042;28;20524;-67
2023/01/29 07:37:55;;;;;;;7.47;6.03;;;-0.60;91.10;;;;;;5073041;28;20025;-68
2023/01/29 07:40:21;;;;;;;8.55;6.13;;;-0.60;90.80;;;;;;5072661;28;20080;-68
2023/01/29 07:42:47;;;;;;;9.30;6.20;;;-0.50;91.30;;;;;;5073025;28;20107;-66
2023/01/29 07:45:13;;;;;;;8.77;6.10;;;-0.40;91.30;;;;;;5072061;28;20031;-67
2023/01/29 07:47:39;;;;;;;8.70;5.97;;;-0.30;91.00;;;;;;5072874;28;20446;-67
2023/01/29 07:50:05;;;;;;;10.27;6.38;;;-0.30;90.70;;;;;;5073286;28;20428;-67
2023/01/29 07:52:32;;;;;;;11.10;6.65;;;-0.30;90.40;;;;;;5072332;28;20032;-67
2023/01/29 07:54:58;;;;;;;8.57;6.10;;;-0.30;90.80;;;;;;5073193;28;20111;-67
2023/01/29 07:57:23;;;;;;;8.43;6.13;;;-0.30;90.40;;;;;;5072567;28;20109;-67
2023/01/29 07:59:49;;;;;;;7.97;6.25;;;-0.30;90.50;;;;;;5071986;28;20040;-67
2023/01/29 08:02:14;;;;;;;11.35;6.63;;;-0.20;90.40;;;;;;5072778;28;20028;-68
2023/01/29 08:04:40;;;;;;;11.02;6.55;;;-0.30;90.10;;;;;;5072534;28;20074;-67
2023/01/29 08:07:08;;;;;;;10.15;6.43;;;-0.30;90.20;;;;;;5073072;28;20024;-67
2023/01/29 08:09:34;;;;;;;8.52;6.25;;;-0.30;90.50;;;;;;5072511;28;20036;-67
2023/01/29 08:11:59;;;;;;;9.52;6.90;;;-0.30;90.50;;;;;;5072672;28;20028;-68
2023/01/29 08:14:25;;;;;;;9.68;6.60;;;-0.20;91.00;;;;;;5072069;28;20036;-68
2023/01/29 08:16:50;;;;;;;9.30;7.07;;;-0.20;90.40;;;;;;5072885;28;20040;-68
2023/01/29 08:19:16;;;;;;;8.93;6.32;;;-0.30;89.80;;;;;;5073177;28;20047;-67
2023/01/29 08:21:42;;;;;;;9.55;6.88;;;-0.30;90.20;;;;;;5072230;28;20027;-67
2023/01/29 08:24:08;;;;;;;8.70;6.50;;;-0.30;89.80;;;;;;5071567;28;20031;-67
2023/01/29 08:26:34;;;;;;;8.85;6.18;;;-0.30;90.20;;;;;;5072046;28;20099;-68
2023/01/29 08:28:59;;;;;;;9.85;6.50;;;-0.30;90.10;;;;;;5072587;28;20031;-67
2023/01/29 08:31:25;;;;;;;9.93;6.90;;;-0.20;90.10;;;;;;5075400;28;20029;-67
2023/01/29 08:33:53;;;;;;;9.25;6.63;;;-0.20;90.20;;;;;;5076865;28;20027;-67
2023/01/29 08:36:19;;;;;;;11.82;5.82;;;-0.20;89.50;;;;;;5076533;28;20085;-72
2023/01/29 08:38:45;;;;;;;9.95;6.82;;;-0.20;88.50;;;;;;5076455;28;20071;-68
2023/01/29 08:41:10;;;;;;;7.93;7.03;;;-0.20;88.80;;;;;;5076361;28;20053;-67
2023/01/29 08:43:36;;;;;;;11.65;6.90;;;-0.20;88.80;;;;;;5076820;28;20082;-67
2023/01/29 08:46:03;;;;;;;10.60;7.47;;;-0.20;89.10;;;;;;5077605;28;20480;-67
2023/01/29 08:48:29;;;;;;;11.90;7.03;;;-0.20;89.80;;;;;;5084555;28;20021;-68
2023/01/29 08:50:59;;;;;;;8.98;6.55;;;-0.20;90.10;;;;;;5080976;28;20028;-67
2023/01/29 08:53:25;;;;;;;9.53;6.87;;;-0.20;89.50;;;;;;5074760;28;20024;-67
2023/01/29 08:55:51;;;;;;;9.73;7.00;;;-0.10;89.40;;;;;;5077217;28;20437;-67
2023/01/29 08:58:17;;;;;;;9.52;7.50;;;-0.20;88.60;;;;;;5075063;28;20032;-67
2023/01/29 09:00:43;;;;;;;8.45;6.63;;;-0.20;89.30;;;;;;5075755;28;20036;-67
2023/01/29 09:03:09;;;;;;;13.15;7.25;;;-0.20;89.00;;;;;;5076186;28;20461;-67
2023/01/29 09:05:37;;;;;;;9.00;6.72;;;-0.10;88.80;;;;;;5074347;28;20096;-67
2023/01/29 09:08:03;;;;;;;10.43;7.38;;;-0.20;89.30;;;;;;5075854;28;20024;-67
2023/01/29 09:10:29;;;;;;;10.32;7.07;;;-0.20;89.50;;;;;;5075986;28;20047;-66
2023/01/29 09:12:55;;;;;;;9.85;7.45;;;-0.10;90.20;;;;;;5076077;28;20028;-66
2023/01/29 09:15:21;;;;;;;10.93;7.65;;;0.00;89.40;;;;;;5075813;28;20040;-66
2023/01/29 09:17:48;;;;;;;9.55;6.80;;;0.00;89.50;;;;;;5077032;28;20058;-66
2023/01/29 09:20:14;;;;;;;7.43;5.85;;;0.00;88.60;;;;;;5078181;28;20028;-67
2023/01/29 09:22:40;;;;;;;11.43;7.57;;;0.10;88.50;;;;;;5079027;28;20032;-67
2023/01/29 09:25:06;;;;;;;9.82;7.05;;;0.20;87.70;;;;;;5079037;28;20021;-66
2023/01/29 09:27:32;;;;;;;11.38;7.40;;;0.20;88.00;;;;;;5078058;28;20036;-67
2023/01/29 09:29:58;;;;;;;10.52;7.60;;;0.20;87.90;;;;;;5075761;28;20033;-67
2023/01/29 09:32:24;;;;;;;9.88;7.28;;;0.20;87.40;;;;;;5075166;28;20056;-69
2023/01/29 09:34:49;;;;;;;9.77;7.55;;;0.30;87.70;;;;;;5075641;28;20531;-66
2023/01/29 09:37:16;;;;;;;12.07;7.28;;;0.30;87.80;;;;;;5075535;28;20025;-66
2023/01/29 09:39:42;;;;;;;9.63;7.28;;;0.30;88.10;;;;;;5073535;28;20037;-68
2023/01/29 09:42:26;;;;;;;12.05;7.93;;;0.30;86.90;;;;;;5074976;28;20469;-67
2023/01/29 09:45:04;;;;;;;13.32;7.60;;;0.40;87.60;;;;;;5075726;28;20369;-68
2023/01/29 09:47:33;;;;;;;10.27;7.30;;;0.40;86.60;;;;;;5073794;28;20059;-68
2023/01/29 09:50:07;;;;;;;12.73;8.00;;;0.50;86.00;;;;;;5075243;28;20443;-68
2023/01/29 09:52:41;;;;;;;11.35;7.90;;;0.50;86.50;;;;;;5074743;28;20040;-68
2023/01/29 09:55:27;;;;;;;10.60;8.13;;;0.50;85.90;;;;;;5075433;28;20028;-67
2023/01/29 09:57:57;;;;;;;16.30;8.48;;;0.60;87.40;;;;;;5075101;28;20075;-68
2023/01/29 10:00:28;;;;;;;9.38;6.97;;;0.60;86.00;;;;;;5075226;28;20036;-68
2023/01/29 10:03:15;;;;;;;12.80;8.50;;;0.50;85.30;;;;;;5074051;28;20028;-67
2023/01/29 10:05:51;;;;;;;12.27;8.38;;;0.50;85.40;;;;;;5074773;28;20380;-66
2023/01/29 10:08:35;;;;;;;10.73;8.02;;;0.50;84.90;;;;;;5074751;28;20035;-66
2023/01/29 10:11:13;;;;;;;12.05;8.30;;;0.50;84.90;;;;;;5075056;28;20046;-67
2023/01/29 10:13:50;;;;;;;10.68;7.43;;;0.60;85.30;;;;;;5074666;28;20418;-67
2023/01/29 10:16:49;;;;;;;11.95;7.85;;;0.70;85.60;;;;;;5075084;28;20070;-68
2023/01/29 10:19:15;;;;;;;13.80;8.75;;;0.80;85.10;;;;;;5053042;28;20125;-66
2023/01/29 10:22:09;;;;;;;11.60;7.80;;;0.90;85.90;;;;;;5074401;28;20088;-66
2023/01/29 10:24:40;;;;;;;10.90;7.70;;;1.00;84.20;;;;;;5074292;28;20111;-68
2023/01/29 10:27:16;;;;;;;10.20;7.85;;;1.00;83.90;;;;;;5074529;28;20029;-67
2023/01/29 10:29:44;;;;;;;15.50;8.00;;;1.10;84.10;;;;;;5073822;28;20028;-67
2023/01/29 10:32:18;;;;;;;19.23;8.52;;;1.20;83.70;;;;;;5074399;28;20111;-67
2023/01/29 10:35:14;;;;;;;14.43;8.98;;;1.40;84.90;;;;;;5074167;28;20103;-68
2023/01/29 10:37:42;;;;;;;11.82;8.63;;;1.60;83.70;;;;;;5074048;28;20113;-68
2023/01/29 10:40:41;;;;;;;10.63;7.72;;;1.70;83.40;;;;;;5073043;28;20423;-68
2023/01/29 10:43:33;;;;;;;11.52;8.05;;;1.80;81.80;;;;;;5074359;28;20036;-66
2023/01/29 10:46:40;;;;;;;11.00;8.20;;;1.80;80.20;;;;;;5058159;28;20089;-67
2023/01/29 10:49:17;;;;;;;10.63;7.57;;;1.80;79.90;;;;;;5073843;28;20028;-68
2023/01/29 10:52:21;;;;;;;10.23;7.90;;;2.00;80.90;;;;;;5073588;28;20031;-68
2023/01/29 10:54:53;;;;;;;10.80;8.32;;;2.10;79.70;;;;;;5057265;28;20417;-67
2023/01/29 10:58:14;;;;;;;12.15;8.57;;;2.30;80.60;;;;;;5073395;28;20028;-68
2023/01/29 11:00:40;;;;;;;9.98;7.97;;;2.50;80.00;;;;;;5036298;28;20424;-68
2023/01/29 11:03:12;;;;;;;11.23;7.85;;;2.60;79.20;;;;;;5088503;28;20031;-67
2023/01/29 11:05:59;;;;;;;11.90;8.13;;;2.60;76.90;;;;;;5093623;28;20031;-67
2023/01/29 11:08:33;;;;;;;13.88;8.23;;;2.50;76.60;;;;;;5094042;28;20481;-67
2023/01/29 11:11:13;;;;;;;15.57;8.68;;;2.40;77.30;;;;;;5094138;28;20032;-68
2023/01/29 11:14:06;;;;;;;13.02;8.25;;;2.40;78.20;;;;;;5093655;28;20414;-67
2023/01/29 11:16:41;;;;;;;12.63;8.68;;;2.40;77.50;;;;;;5093425;28;20020;-67
2023/01/29 11:19:07;;;;;;;10.00;7.93;;;2.20;78.40;;;;;;5093657;28;20035;-67
2023/01/29 11:21:59;;;;;;;11.23;8.30;;;2.10;77.90;;;;;;5093109;28;20024;-67
2023/01/29 11:24:26;;;;;;;11.90;9.15;;;2.10;78.60;;;;;;5093825;28;20020;-66
2023/01/29 11:26:56;;;;;;;13.00;8.90;;;2.20;79.10;;;;;;5093288;28;20307;-67
2023/01/29 11:29:44;;;;;;;12.82;9.05;;;2.10;79.20;;;;;;5093560;28;20036;-67
2023/01/29 11:32:32;;;;;;;12.30;8.77;;;2.10;79.00;;;;;;5093253;28;20086;-67
2023/01/29 11:35:03;;;;;;;11.68;8.57;;;2.20;79.50;;;;;;5093401;28;20034;-67
2023/01/29 11:37:40;;;;;;;13.75;9.02;;;2.30;79.50;;;;;;5093452;28;20071;-67
2023/01/29 11:40:18;;;;;;;13.15;9.38;;;2.50;80.60;;;;;;5093140;28;20093;-67
2023/01/29 11:42:47;;;;;;;12.32;8.80;;;2.50;78.80;;;;;;5092735;28;20099;-68
2023/01/29 11:45:19;;;;;;;11.30;8.80;;;2.70;79.90;;;;;;5093348;28;20035;-67
2023/01/29 11:47:49;;;;;;;12.85;8.68;;;2.90;79.60;;;;;;5092907;28;20103;-66
2023/01/29 11:50:23;;;;;;;13.45;8.18;;;2.90;77.80;;;;;;5092954;28;20028;-67
2023/01/29 11:52:48;;;;;;;11.65;8.38;;;3.10;77.10;;;;;;5093043;28;20036;-67
2023/01/29 11:55:19;;;;;;;13.57;8.57;;;3.20;76.60;;;;;;5093677;28;20540;-67
2023/01/29 11:58:03;;;;;;;10.27;8.25;;;3.10;76.40;;;;;;5093006;28;20035;-66
2023/01/29 12:00:32;;;;;;;11.45;7.90;;;3.10;75.40;;;;;;5093215;28;20419;-67
2023/01/29 12:03:09;;;;;;;10.70;8.13;;;3.10;76.10;;;;;;5092866;28;20032;-67
2023/01/29 12:05:37;;;;;;;13.52;9.05;;;3.20;75.00;;;;;;5092852;28;20024;-69
2023/01/29 12:08:03;;;;;;;11.77;9.38;;;3.00;73.50;;;;;;5095850;28;20047;-68
2023/01/29 12:10:38;;;;;;;11.27;8.40;;;3.00;74.80;;;;;;5098784;28;20111;-68
2023/01/29 12:13:10;;;;;;;11.80;9.18;;;3.00;76.60;;;;;;5094726;28;20099;-67
2023/01/29 12:15:41;;;;;;;13.68;8.90;;;3.10;76.80;;;;;;5092623;28;20028;-68
2023/01/29 12:18:25;;;;;;;13.35;9.43;;;3.10;76.20;;;;;;5093008;28;20142;-67
2023/01/29 12:21:01;;;;;;;12.13;8.40;;;3.20;75.00;;;;;;5092448;28;20073;-68
2023/01/29 12:24:04;;;;;;;13.23;8.90;;;3.30;74.70;;;;;;5092617;28;20032;-68
2023/01/29 12:26:35;;;;;;;12.32;8.05;;;3.20;73.70;;;;;;5079272;28;20036;-67
2023/01/29 12:29:31;;;;;;;13.10;9.20;;;3.10;72.80;;;;;;5076499;28;20067;-67
2023/01/29 12:32:00;;;;;;;11.73;8.55;;;3.10;74.20;;;;;;5072178;28;20119;-68
2023/01/29 12:34:26;;;;;;;15.77;10.05;;;3.20;75.10;;;;;;5072658;28;20358;-67
2023/01/29 12:36:59;;;;;;;12.25;9.05;;;3.30;74.90;;;;;;5072328;28;20039;-68
2023/01/29 12:39:25;;;;;;;12.88;9.02;;;3.30;74.50;;;;;;5072559;28;20032;-67
2023/01/29 12:42:02;;;;;;;14.15;9.52;;;3.30;73.40;;;;;;5073194;28;20055;-68
2023/01/29 12:44:44;;;;;;;14.63;9.98;;;3.40;73.90;;;;;;5073679;28;20036;-67
2023/01/29 12:47:33;;;;;;;14.73;9.20;;;3.40;75.40;;;;;;5073495;28;20029;-67
2023/01/29 12:50:20;;;;;;;11.75;9.57;;;3.50;74.40;;;;;;5062465;28;20044;-67
2023/01/29 12:52:51;;;;;;;12.02;8.50;;;3.60;75.00;;;;;;5072807;28;20037;-68
2023/01/29 12:55:46;;;;;;;13.00;10.07;;;3.60;74.40;;;;;;5073105;28;20024;-66
2023/01/29 12:58:15;;;;;;;15.10;9.65;;;3.60;75.00;;;;;;5073379;28;20477;-69
2023/01/29 13:00:48;;;;;;;14.68;9.93;;;3.60;74.40;;;;;;5091899;28;20533;-68
2023/01/29 13:03:22;;;;;;;13.73;10.10;;;3.60;74.10;;;;;;5092918;28;20134;-67
2023/01/29 13:05:59;;;;;;;11.63;9.13;;;3.50;73.90;;;;;;5092270;28;20032;-68
2023/01/29 13:08:25;;;;;;;15.20;10.27;;;3.40;73.90;;;;;;5091144;28;20425;-68
2023/01/29 13:10:54;;;;;;;15.15;10.05;;;3.40;74.70;;;;;;5092307;28;20132;-67
2023/01/29 13:13:37;;;;;;;13.98;10.70;;;3.50;74.60;;;;;;5092496;28;20032;-68
2023/01/29 13:16:08;;;;;;;13.60;9.65;;;3.50;74.60;;;;;;5092194;28;20461;-68
2023/01/29 13:18:49;;;;;;;14.77;11.40;;;3.40;74.60;;;;;;5095953;28;20039;-66
2023/01/29 13:21:20;;;;;;;17.10;11.23;;;3.30;75.20;;;;;;5096016;28;20032;-68
2023/01/29 13:23:50;;;;;;;16.52;10.15;;;3.30;75.80;;;;;;5095268;28;20473;-67
2023/01/29 13:26:20;;;;;;;18.95;11.80;;;3.40;76.60;;;;;;5096092;28;20082;-67
2023/01/29 13:28:46;;;;;;;16.53;10.63;;;3.40;76.60;;;;;;5094253;28;20032;-66
2023/01/29 13:31:25;;;;;;;17.35;10.90;;;3.40;76.90;;;;;;5096072;28;20252;-66
2023/01/29 13:34:05;;;;;;;14.88;11.35;;;3.30;76.30;;;;;;5095871;28;20042;-67
2023/01/29 13:36:32;;;;;;;15.40;11.07;;;3.20;76.40;;;;;;5095682;28;20063;-66